Time;durP1;ratioP1;P1;durP2;ratioP2;P2;SDS_P1;SDS_P2;PMS_P1;PMS_P2;Temp;Humidity;BMP_temperature;BMP_pressure;BME280_temperature;BME280_humidity;BME280_pressure;Samples;Min_cycle;Max_cycle;Signal;HPM_P1;HPM_P2
2022/04/25 00:01:39;;;;;;;3.53;2.53;;;12.50;62.00;;;;;;20742;6837;117531;-73
2022/04/25 00:04:05;;;;;;;3.08;2.87;;;12.30;62.40;;;;;;20532;6837;337096;-73
2022/04/25 00:06:31;;;;;;;2.78;2.67;;;12.50;62.20;;;;;;20749;6836;117271;-73
2022/04/25 00:08:57;;;;;;;2.63;2.53;;;12.40;62.00;;;;;;20744;6837;117579;-73
2022/04/25 00:11:22;;;;;;;3.60;3.40;;;12.30;62.60;;;;;;20515;6837;307593;-73
2022/04/25 00:13:49;;;;;;;3.00;2.80;;;12.40;62.10;;;;;;20754;6837;118182;-73
2022/04/25 00:16:14;;;;;;;2.93;2.83;;;12.40;62.10;;;;;;20748;6837;117223;-73
2022/04/25 00:18:40;;;;;;;2.70;2.60;;;12.20;62.40;;;;;;20744;6837;118339;-73
2022/04/25 00:21:05;;;;;;;3.03;2.93;;;12.10;63.00;;;;;;20727;6837;117394;-73
2022/04/25 00:23:31;;;;;;;3.45;3.35;;;11.90;63.50;;;;;;20534;6837;341010;-73
2022/04/25 00:25:57;;;;;;;3.42;3.22;;;12.10;63.50;;;;;;20537;6837;278123;-73
2022/04/25 00:28:22;;;;;;;3.37;3.17;;;12.50;62.30;;;;;;20742;6837;117766;-73
2022/04/25 00:30:48;;;;;;;3.70;3.60;;;12.50;62.10;;;;;;20529;6837;307393;-73
2022/04/25 00:33:14;;;;;;;2.90;2.80;;;12.60;61.70;;;;;;20733;6837;117806;-73
2022/04/25 00:35:39;;;;;;;2.87;2.77;;;12.30;62.20;;;;;;20741;6837;118865;-73
2022/04/25 00:38:05;;;;;;;2.70;2.60;;;12.30;62.20;;;;;;20741;6837;117770;-73
2022/04/25 00:40:32;;;;;;;3.10;2.90;;;12.00;63.30;;;;;;20743;6837;117029;-73
2022/04/25 00:42:57;;;;;;;2.80;2.63;;;12.00;63.30;;;;;;20742;6837;118966;-73
2022/04/25 00:45:22;;;;;;;3.20;3.10;;;11.80;63.50;;;;;;20727;6837;117835;-73
2022/04/25 00:47:48;;;;;;;3.78;3.58;;;11.80;63.90;;;;;;20534;6837;306931;-73
2022/04/25 00:50:14;;;;;;;3.43;3.23;;;12.00;63.50;;;;;;20744;6837;117615;-72
2022/04/25 00:52:39;;;;;;;3.80;3.60;;;12.10;63.00;;;;;;20532;6837;312105;-73
2022/04/25 00:55:07;;;;;;;4.40;4.10;;;12.30;62.30;;;;;;20514;6837;311684;-73
2022/04/25 00:57:30;;;;;;;3.80;3.50;;;12.70;61.20;;;;;;20475;6852;278551;-73
2022/04/25 00:59:56;;;;;;;3.50;3.30;;;12.90;60.30;;;;;;20481;6852;307825;-73
2022/04/25 01:02:22;;;;;;;3.90;3.70;;;13.10;59.30;;;;;;20489;6852;307834;-73
2022/04/25 01:04:47;;;;;;;4.20;3.90;;;13.30;58.70;;;;;;20495;6852;286747;-73
2022/04/25 01:07:13;;;;;;;4.10;3.80;;;13.40;59.00;;;;;;20677;6852;118824;-73
2022/04/25 01:09:38;;;;;;;3.87;3.67;;;13.20;58.80;;;;;;20474;6852;308111;-73
2022/04/25 01:12:04;;;;;;;3.75;3.55;;;13.10;58.90;;;;;;20698;6852;118850;-73
2022/04/25 01:14:30;;;;;;;3.57;3.37;;;12.70;60.10;;;;;;20692;6852;117150;-73
2022/04/25 01:16:56;;;;;;;4.27;3.97;;;12.70;60.10;;;;;;20694;6850;117637;-73
2022/04/25 01:19:21;;;;;;;3.47;3.27;;;12.40;60.90;;;;;;20677;6851;117315;-73
2022/04/25 01:21:50;;;;;;;4.23;4.03;;;12.30;61.50;;;;;;20479;6852;297598;-73
2022/04/25 01:29:44;;;;;;;4.60;4.40;;;13.30;58.50;;;;;;20553;6829;278654;-72
2022/04/25 01:32:10;;;;;;;4.80;4.50;;;13.20;58.50;;;;;;20496;6844;341030;-72
2022/04/25 01:34:39;;;;;;;4.70;4.40;;;13.40;58.00;;;;;;20532;6835;308107;-72
2022/04/25 01:37:08;;;;;;;4.40;4.20;;;13.30;58.30;;;;;;20736;6836;117241;-73
2022/04/25 01:39:37;;;;;;;4.40;4.20;;;13.30;58.30;;;;;;20596;6838;118851;-73
2022/04/25 01:42:03;;;;;;;4.17;3.97;;;12.90;59.20;;;;;;20752;6823;117142;-72
2022/04/25 01:44:29;;;;;;;4.07;3.87;;;12.40;60.80;;;;;;20782;6823;117185;-72
2022/04/25 01:46:54;;;;;;;4.43;4.20;;;12.40;60.80;;;;;;20786;6823;118213;-72
2022/04/25 01:49:20;;;;;;;4.72;4.53;;;12.30;61.40;;;;;;20556;6823;307853;-72
2022/04/25 01:51:45;;;;;;;5.40;5.10;;;12.50;61.20;;;;;;20573;6823;279297;-72
2022/04/25 01:54:11;;;;;;;5.07;4.77;;;12.80;60.40;;;;;;20786;6823;117706;-72
2022/04/25 01:56:37;;;;;;;5.67;5.37;;;12.80;60.20;;;;;;20564;6823;336603;-72
2022/04/25 01:59:02;;;;;;;6.10;5.80;;;12.90;59.90;;;;;;20574;6823;307537;-72
2022/04/25 02:01:28;;;;;;;5.30;5.00;;;13.10;59.30;;;;;;20765;6823;121112;-72
2022/04/25 02:03:54;;;;;;;5.80;5.40;;;13.00;59.20;;;;;;20571;6823;311671;-72
2022/04/25 02:06:19;;;;;;;5.80;5.50;;;13.10;59.10;;;;;;20569;6823;307500;-72
2022/04/25 02:08:46;;;;;;;5.70;5.40;;;13.40;58.30;;;;;;20573;6823;311023;-72
2022/04/25 02:11:25;;;;;;;6.00;5.60;;;13.40;58.30;;;;;;20552;6823;281913;-72
2022/04/25 02:13:54;;;;;;;6.07;5.78;;;13.50;57.80;;;;;;20572;6823;302227;-72
2022/04/25 02:16:19;;;;;;;7.10;6.70;;;13.60;57.50;;;;;;20573;6823;336657;-73
2022/04/25 02:18:45;;;;;;;7.03;6.63;;;13.60;56.90;;;;;;20564;6823;303078;-73
2022/04/25 02:21:10;;;;;;;7.93;7.43;;;13.60;56.40;;;;;;20765;6823;119042;-73
2022/04/25 02:23:36;;;;;;;7.62;7.12;;;13.40;57.10;;;;;;20787;6823;117471;-72
2022/04/25 02:26:02;;;;;;;9.90;9.30;;;13.00;58.10;;;;;;20574;6823;294053;-73
2022/04/25 02:28:28;;;;;;;10.52;9.93;;;13.20;58.20;;;;;;20572;6823;323442;-73
2022/04/25 02:30:54;;;;;;;9.50;8.90;;;13.20;57.40;;;;;;20785;6821;117765;-73
2022/04/25 02:33:20;;;;;;;10.77;10.00;;;13.00;57.60;;;;;;20771;6823;118416;-72
2022/04/25 02:35:45;;;;;;;11.80;11.00;;;12.70;58.40;;;;;;20571;6823;342499;-72
2022/04/25 02:38:11;;;;;;;13.00;12.20;;;12.80;58.00;;;;;;20571;6823;307657;-72
2022/04/25 02:40:36;;;;;;;12.82;12.10;;;13.10;57.60;;;;;;20573;6823;283722;-72
2022/04/25 02:43:02;;;;;;;12.30;11.33;;;13.30;56.70;;;;;;20786;6823;117477;-72
2022/04/25 02:45:27;;;;;;;12.30;11.40;;;13.10;57.10;;;;;;20768;6823;121919;-73
2022/04/25 02:47:53;;;;;;;13.40;12.43;;;12.80;57.90;;;;;;20572;6823;337443;-73
2022/04/25 02:50:18;;;;;;;11.67;10.87;;;12.80;57.30;;;;;;20781;6823;122197;-72
2022/04/25 02:52:44;;;;;;;12.07;11.13;;;12.80;58.10;;;;;;20782;6823;122216;-72
2022/04/25 02:55:10;;;;;;;12.00;11.20;;;12.50;58.60;;;;;;20766;6823;124373;-72
2022/04/25 02:57:36;;;;;;;13.10;12.10;;;12.10;59.90;;;;;;20785;6823;119913;-72
2022/04/25 03:00:01;;;;;;;15.67;14.57;;;12.10;59.90;;;;;;20575;6823;311733;-72
2022/04/25 03:02:27;;;;;;;14.77;13.73;;;12.30;59.80;;;;;;20574;6823;277625;-73
2022/04/25 03:04:53;;;;;;;12.17;11.27;;;12.60;59.30;;;;;;20576;6823;298770;-72
2022/04/25 03:07:18;;;;;;;10.90;10.20;;;12.90;58.70;;;;;;20557;6823;278137;-72
2022/04/25 03:09:44;;;;;;;8.70;8.10;;;13.10;58.00;;;;;;20792;6823;122612;-73
2022/04/25 03:12:10;;;;;;;9.50;8.80;;;12.60;59.70;;;;;;20795;6823;118056;-72
2022/04/25 03:14:35;;;;;;;10.90;10.13;;;12.60;59.20;;;;;;20788;6823;117513;-73
2022/04/25 03:17:01;;;;;;;13.85;12.48;;;12.30;60.00;;;;;;20574;6823;341849;-70
2022/04/25 03:19:27;;;;;;;14.27;13.27;;;12.40;59.90;;;;;;20550;6823;337331;-71
2022/04/25 03:21:53;;;;;;;12.67;11.70;;;12.60;59.10;;;;;;20787;6823;119404;-70
2022/04/25 03:24:18;;;;;;;13.93;12.93;;;12.60;59.10;;;;;;20787;6823;117653;-70
2022/04/25 03:26:44;;;;;;;14.23;13.13;;;12.40;59.70;;;;;;20790;6823;117583;-70
2022/04/25 03:29:11;;;;;;;14.93;13.73;;;12.10;60.20;;;;;;20770;6823;119254;-70
2022/04/25 03:31:35;;;;;;;15.63;14.33;;;11.90;60.60;;;;;;20788;6823;117783;-70
2022/04/25 03:34:01;;;;;;;18.65;17.17;;;11.70;61.10;;;;;;20577;6823;317340;-71
2022/04/25 03:36:26;;;;;;;17.27;15.77;;;11.90;60.00;;;;;;20782;6823;124327;-69
2022/04/25 03:38:53;;;;;;;15.87;14.57;;;12.00;60.00;;;;;;20790;6823;117453;-70
2022/04/25 03:41:18;;;;;;;19.50;18.00;;;11.90;60.20;;;;;;20557;6821;307410;-70
2022/04/25 03:43:43;;;;;;;16.77;15.43;;;12.00;60.00;;;;;;20788;6823;117643;-70
2022/04/25 03:46:09;;;;;;;16.73;15.63;;;12.20;59.50;;;;;;20579;6823;307753;-70
2022/04/25 03:48:35;;;;;;;16.95;15.75;;;12.20;59.40;;;;;;20572;6823;327947;-69
2022/04/25 03:51:00;;;;;;;18.17;16.87;;;12.50;58.20;;;;;;20577;6823;321537;-70
2022/04/25 03:53:26;;;;;;;16.97;15.77;;;12.70;57.00;;;;;;20752;6823;118588;-70
2022/04/25 03:58:38;;;;;;;19.70;18.30;;;12.20;57.70;;;;;;20577;6823;303856;-69
2022/04/25 04:01:04;;;;;;;18.75;17.35;;;12.10;57.20;;;;;;20791;6823;117959;-69
2022/04/25 04:03:32;;;;;;;18.50;17.00;;;12.10;57.20;;;;;;20769;6823;118833;-69
2022/04/25 04:05:56;;;;;;;21.95;20.25;;;11.80;57.80;;;;;;20560;6823;344298;-69
2022/04/25 04:08:21;;;;;;;17.57;16.17;;;11.90;57.70;;;;;;20786;6823;117644;-69
2022/04/25 04:10:46;;;;;;;18.10;16.63;;;11.80;57.80;;;;;;20784;6823;117423;-69
2022/04/25 04:13:13;;;;;;;17.97;16.57;;;11.30;59.30;;;;;;20775;6823;144718;-69
2022/04/25 04:15:38;;;;;;;18.20;16.80;;;11.30;59.00;;;;;;20784;6823;117696;-69
2022/04/25 04:18:07;;;;;;;22.33;20.63;;;11.10;59.60;;;;;;20582;6823;285059;-69
2022/04/25 04:20:32;;;;;;;19.27;17.67;;;11.40;59.50;;;;;;20794;6823;117632;-69
2022/04/25 04:22:58;;;;;;;22.60;20.88;;;11.30;59.30;;;;;;20579;6823;307286;-68
2022/04/25 04:25:23;;;;;;;19.23;17.67;;;11.50;59.20;;;;;;20777;6823;121019;-69
2022/04/25 04:27:49;;;;;;;18.80;17.20;;;11.50;59.20;;;;;;20787;6823;118221;-68
2022/04/25 04:30:15;;;;;;;18.07;16.47;;;11.30;60.00;;;;;;20769;6823;118469;-71
2022/04/25 04:32:40;;;;;;;19.20;17.60;;;11.10;60.50;;;;;;20777;6823;118066;-71
2022/04/25 04:35:06;;;;;;;22.90;21.20;;;11.00;61.10;;;;;;20551;6823;308534;-70
2022/04/25 04:37:35;;;;;;;22.80;21.10;;;11.30;60.90;;;;;;20536;6823;312266;-70
2022/04/25 04:42:46;;;;;;;18.70;17.10;;;11.70;60.00;;;;;;20790;6823;118034;-72
2022/04/25 04:45:11;;;;;;;18.30;16.70;;;11.50;60.50;;;;;;20767;6823;124256;-70
2022/04/25 04:47:38;;;;;;;21.00;19.50;;;11.40;61.20;;;;;;20573;6823;341142;-71
2022/04/25 04:50:03;;;;;;;22.57;20.97;;;11.60;60.70;;;;;;20567;6823;308455;-70
2022/04/25 04:52:28;;;;;;;23.63;21.83;;;12.00;59.80;;;;;;20573;6822;308104;-70
2022/04/25 04:54:54;;;;;;;17.47;16.03;;;12.40;59.00;;;;;;20787;6823;118603;-72
2022/04/25 04:57:19;;;;;;;19.63;18.23;;;12.30;58.90;;;;;;20559;6823;308393;-72
2022/04/25 04:59:45;;;;;;;16.90;15.80;;;12.40;58.10;;;;;;20582;6823;277597;-70
2022/04/25 05:02:10;;;;;;;14.87;13.87;;;12.70;57.70;;;;;;20789;6823;117413;-70
2022/04/25 05:04:38;;;;;;;13.77;12.70;;;12.40;58.90;;;;;;20793;6823;117549;-71
2022/04/25 05:07:02;;;;;;;12.53;11.70;;;12.30;58.80;;;;;;20783;6823;121308;-71
2022/04/25 05:09:29;;;;;;;13.98;13.02;;;12.40;59.70;;;;;;20546;6823;302265;-71
2022/04/25 05:11:55;;;;;;;13.37;12.37;;;12.30;59.50;;;;;;20787;6823;117992;-71
2022/04/25 05:14:20;;;;;;;12.73;11.73;;;12.40;59.60;;;;;;20792;6823;118053;-71
2022/04/25 05:16:45;;;;;;;12.87;11.97;;;12.20;60.00;;;;;;20791;6823;118614;-71
2022/04/25 05:19:11;;;;;;;11.67;10.77;;;12.10;60.50;;;;;;20767;6823;117690;-71
2022/04/25 05:21:37;;;;;;;13.32;12.48;;;12.00;60.90;;;;;;20573;6823;307379;-70
2022/04/25 05:24:02;;;;;;;10.87;10.17;;;12.20;60.60;;;;;;20787;6823;117442;-69
2022/04/25 05:26:27;;;;;;;9.90;9.27;;;12.30;60.40;;;;;;20791;6823;117523;-70
2022/04/25 05:28:53;;;;;;;12.50;11.70;;;12.20;60.70;;;;;;20572;6823;312031;-70
2022/04/25 05:31:19;;;;;;;12.10;11.40;;;12.40;59.80;;;;;;20552;6823;307486;-71
2022/04/25 05:33:45;;;;;;;12.10;11.13;;;12.80;58.90;;;;;;20791;6823;119022;-72
2022/04/25 05:36:11;;;;;;;12.80;12.00;;;12.80;58.90;;;;;;20575;6823;278561;-70
2022/04/25 05:38:37;;;;;;;12.17;11.27;;;12.90;58.70;;;;;;20788;6823;117527;-72
2022/04/25 05:41:03;;;;;;;11.95;11.23;;;13.00;57.90;;;;;;20564;6823;321739;-70
2022/04/25 05:43:29;;;;;;;12.10;11.30;;;13.00;57.90;;;;;;20548;6823;277671;-71
2022/04/25 05:45:55;;;;;;;9.97;9.37;;;13.30;57.00;;;;;;20777;6823;119166;-72
2022/04/25 05:53:51;;;;;;;9.60;9.00;;;13.30;57.30;;;;;;20576;6823;307211;-70
2022/04/25 05:56:17;;;;;;;7.20;6.80;;;13.40;57.30;;;;;;20781;6823;117790;-71
2022/04/25 05:58:43;;;;;;;8.27;7.73;;;13.40;56.80;;;;;;20788;6823;117303;-71
2022/04/25 06:01:08;;;;;;;7.17;6.67;;;13.20;57.50;;;;;;20757;6823;117696;-71
2022/04/25 06:03:55;;;;;;;7.77;7.20;;;13.20;57.10;;;;;;20555;6822;307500;-70
2022/04/25 06:06:23;;;;;;;13.40;9.20;;;13.20;57.10;;;;;;20774;6823;117012;-71
2022/04/25 06:08:45;;;;;;;8.47;7.80;;;13.20;57.40;;;;;;20767;6823;117354;-71
2022/04/25 06:11:11;;;;;;;9.97;9.37;;;13.00;58.00;;;;;;20548;6823;281174;-71
2022/04/25 06:13:37;;;;;;;13.85;12.95;;;13.30;59.00;;;;;;20586;6823;307217;-71
2022/04/25 06:16:02;;;;;;;16.97;15.87;;;13.60;59.10;;;;;;20560;6823;304187;-71
2022/04/25 06:18:28;;;;;;;14.37;13.27;;;13.90;58.00;;;;;;20791;6823;117597;-71
2022/04/25 06:20:53;;;;;;;14.17;13.07;;;13.90;58.00;;;;;;20781;6823;119569;-71
2022/04/25 06:23:19;;;;;;;15.33;14.30;;;13.70;58.70;;;;;;20567;6823;283109;-71
2022/04/25 06:25:44;;;;;;;14.50;13.50;;;13.80;58.70;;;;;;20791;6823;117670;-71
2022/04/25 06:28:10;;;;;;;17.87;16.57;;;13.70;59.00;;;;;;20578;6823;307799;-71
2022/04/25 06:30:36;;;;;;;15.20;14.20;;;13.90;57.40;;;;;;20566;6823;307621;-71
2022/04/25 06:33:01;;;;;;;14.80;13.70;;;14.10;56.50;;;;;;20792;6823;117843;-74
2022/04/25 06:35:27;;;;;;;18.40;17.10;;;14.30;55.40;;;;;;20564;6823;315777;-71
2022/04/25 06:37:53;;;;;;;16.87;15.57;;;14.20;55.30;;;;;;20787;6823;117616;-71
2022/04/25 06:40:19;;;;;;;13.03;12.07;;;14.20;55.60;;;;;;20792;6823;118740;-71
2022/04/25 06:42:44;;;;;;;19.00;17.70;;;13.90;56.00;;;;;;20565;6823;333635;-71
2022/04/25 06:45:10;;;;;;;17.00;15.70;;;14.10;55.10;;;;;;20762;6823;118809;-71
2022/04/25 06:48:26;;;;;;;16.75;15.35;;;14.00;56.30;;;;;;20793;6823;117673;-70
2022/04/25 06:50:53;;;;;;;13.87;12.90;;;14.00;56.30;;;;;;20775;6823;117530;-71
2022/04/25 06:53:17;;;;;;;15.83;14.63;;;13.80;57.80;;;;;;20764;6823;119098;-70
2022/04/25 06:55:43;;;;;;;11.50;10.88;;;13.80;57.20;;;;;;20575;6823;307136;-71
2022/04/25 06:58:09;;;;;;;11.33;10.73;;;14.10;55.40;;;;;;20577;6823;279950;-71
2022/04/25 07:00:34;;;;;;;19.30;18.00;;;14.50;54.00;;;;;;20576;6823;279041;-71
2022/04/25 07:03:00;;;;;;;17.10;16.00;;;14.90;52.30;;;;;;20581;6823;278405;-72
2022/04/25 07:05:25;;;;;;;12.20;11.50;;;15.10;51.40;;;;;;20555;6823;336687;-72
2022/04/25 07:07:52;;;;;;;12.40;11.60;;;15.10;52.50;;;;;;20787;6823;117987;-70
2022/04/25 07:10:17;;;;;;;9.80;9.20;;;15.10;51.80;;;;;;20786;6823;117677;-71
2022/04/25 07:12:43;;;;;;;11.93;11.13;;;14.80;52.80;;;;;;20782;6823;117609;-70
2022/04/25 07:15:08;;;;;;;9.40;8.87;;;14.60;53.60;;;;;;20556;6822;313125;-71
2022/04/25 07:17:34;;;;;;;14.67;13.70;;;14.80;52.50;;;;;;20576;6823;312525;-71
2022/04/25 07:19:59;;;;;;;12.98;12.07;;;15.10;51.00;;;;;;20791;6823;117419;-71
2022/04/25 07:30:45;;;;;;;12.48;11.77;;;15.50;50.70;;;;;;20575;6823;336743;-70
2022/04/25 07:33:10;;;;;;;12.30;11.60;;;15.50;50.70;;;;;;20768;6823;118873;-72
2022/04/25 07:35:36;;;;;;;9.93;9.33;;;15.60;51.40;;;;;;20790;6823;117587;-71
2022/04/25 07:38:02;;;;;;;12.43;11.67;;;15.70;50.10;;;;;;20571;6823;312542;-71
2022/04/25 07:40:28;;;;;;;11.05;10.45;;;15.60;49.90;;;;;;20572;6823;337590;-71
2022/04/25 07:42:55;;;;;;;13.50;12.60;;;16.10;48.50;;;;;;20574;6823;277207;-71
2022/04/25 07:45:19;;;;;;;11.53;10.83;;;16.50;48.30;;;;;;20761;6823;119276;-70
2022/04/25 07:47:45;;;;;;;14.07;13.17;;;16.70;49.20;;;;;;20577;6823;278623;-70
2022/04/25 07:50:10;;;;;;;12.10;11.40;;;16.80;47.00;;;;;;20567;6823;337989;-70
2022/04/25 07:52:36;;;;;;;10.77;10.07;;;17.20;46.80;;;;;;20790;6823;118979;-70
2022/04/25 07:55:01;;;;;;;12.90;12.13;;;17.30;47.70;;;;;;20570;6823;305673;-74
2022/04/25 07:57:27;;;;;;;13.90;12.90;;;17.50;45.90;;;;;;20768;6823;117634;-70
2022/04/25 07:59:52;;;;;;;11.87;11.17;;;17.50;47.00;;;;;;20573;6823;311378;-69
2022/04/25 08:02:18;;;;;;;15.45;14.45;;;17.70;45.70;;;;;;20575;6823;308537;-70
2022/04/25 08:04:45;;;;;;;13.97;13.07;;;18.10;45.10;;;;;;20762;6823;118026;-70
2022/04/25 08:07:09;;;;;;;9.70;9.10;;;18.20;46.10;;;;;;20760;6823;124163;-70
2022/04/25 08:09:34;;;;;;;10.25;9.65;;;18.00;46.60;;;;;;20580;6823;283450;-70
2022/04/25 08:20:16;;;;;;;9.20;8.70;;;18.40;43.40;;;;;;20794;6823;118104;-70
2022/04/25 08:22:42;;;;;;;12.73;11.80;;;18.30;44.90;;;;;;20793;6823;117660;-70
2022/04/25 08:25:09;;;;;;;13.00;12.30;;;18.10;45.90;;;;;;20571;6823;278485;-71
2022/04/25 08:27:33;;;;;;;16.10;14.40;;;18.20;44.30;;;;;;20783;6821;117720;-71
2022/04/25 08:29:59;;;;;;;11.73;11.12;;;18.20;45.10;;;;;;20572;6823;336745;-70
2022/04/25 08:32:24;;;;;;;15.53;14.53;;;18.30;43.30;;;;;;20577;6823;278001;-73
2022/04/25 08:34:50;;;;;;;13.43;12.43;;;18.50;43.60;;;;;;20785;6823;118485;-72
2022/04/25 08:37:16;;;;;;;9.52;8.93;;;18.20;45.00;;;;;;20778;6823;117875;-71
2022/04/25 08:39:41;;;;;;;11.40;10.60;;;18.10;44.90;;;;;;20791;6823;119007;-74
2022/04/25 08:42:09;;;;;;;11.60;10.80;;;17.90;45.50;;;;;;20797;6823;118375;-72
2022/04/25 08:44:32;;;;;;;8.77;8.27;;;17.80;46.20;;;;;;20793;6823;118391;-70
2022/04/25 08:46:59;;;;;;;9.33;8.83;;;17.70;46.50;;;;;;20556;6823;278508;-70
2022/04/25 08:49:24;;;;;;;9.57;9.07;;;17.90;44.20;;;;;;20509;6823;336760;-70
2022/04/25 08:51:49;;;;;;;9.30;8.70;;;18.40;43.60;;;;;;20762;6823;121759;-70
2022/04/25 08:54:15;;;;;;;11.27;10.57;;;18.50;44.50;;;;;;20786;6823;121076;-70
2022/04/25 08:56:40;;;;;;;13.40;12.60;;;18.50;45.40;;;;;;20564;6823;308664;-70
2022/04/25 08:59:09;;;;;;;10.43;9.83;;;18.60;43.10;;;;;;20753;6823;117954;-71
2022/04/25 09:01:32;;;;;;;14.68;13.65;;;18.70;44.10;;;;;;20542;6823;304226;-70
2022/04/25 09:03:57;;;;;;;13.80;12.93;;;18.80;42.00;;;;;;20778;6823;117667;-73
2022/04/25 09:06:23;;;;;;;15.63;14.73;;;18.80;43.40;;;;;;20574;6823;278217;-72
2022/04/25 09:08:48;;;;;;;14.23;13.33;;;19.00;42.70;;;;;;20777;6823;118516;-73
2022/04/25 09:14:00;;;;;;;13.35;12.57;;;19.50;42.00;;;;;;20571;6823;278444;-72
2022/04/25 09:16:25;;;;;;;13.40;12.60;;;19.50;42.00;;;;;;20575;6823;307220;-73
2022/04/25 09:18:51;;;;;;;10.30;9.50;;;19.60;40.40;;;;;;20571;6823;307152;-73
2022/04/25 09:21:18;;;;;;;13.50;12.53;;;19.70;40.00;;;;;;20762;6823;142147;-73
2022/04/25 09:23:44;;;;;;;11.27;10.47;;;19.60;42.30;;;;;;20783;6823;117887;-72
2022/04/25 09:26:09;;;;;;;12.60;11.80;;;19.50;43.10;;;;;;20773;6823;118118;-72
2022/04/25 09:28:36;;;;;;;11.73;11.00;;;19.50;43.70;;;;;;20704;6823;118355;-72
2022/04/25 09:31:02;;;;;;;12.27;11.53;;;19.40;43.20;;;;;;20531;6823;308463;-72
2022/04/25 09:33:29;;;;;;;10.68;10.02;;;19.40;39.90;;;;;;20761;6823;118160;-72
2022/04/25 09:35:55;;;;;;;14.07;13.07;;;19.40;40.80;;;;;;20782;6823;124375;-72
2022/04/25 09:38:33;;;;;;;10.60;10.00;;;19.20;41.90;;;;;;20557;6822;338493;-72
2022/04/25 09:40:59;;;;;;;11.17;10.47;;;19.40;38.50;;;;;;20568;6823;278014;-72
2022/04/25 09:43:30;;;;;;;9.63;9.10;;;19.60;38.30;;;;;;20546;6823;397443;-72
2022/04/25 09:45:59;;;;;;;10.00;9.50;;;19.90;40.90;;;;;;20567;6823;278231;-72
2022/04/25 09:48:25;;;;;;;10.77;10.17;;;20.10;38.20;;;;;;20563;6823;313372;-72
2022/04/25 09:51:00;;;;;;;8.98;8.38;;;20.30;38.60;;;;;;20784;6823;118011;-72
2022/04/25 09:53:43;;;;;;;8.67;8.07;;;20.20;40.00;;;;;;20758;6823;121921;-72
2022/04/25 09:56:08;;;;;;;8.87;8.27;;;20.00;40.40;;;;;;20535;6823;117302;-72
2022/04/25 09:58:37;;;;;;;9.85;9.25;;;19.80;40.80;;;;;;20780;6823;117225;-74
2022/04/25 10:01:02;;;;;;;9.33;8.73;;;19.70;42.50;;;;;;20775;6823;117110;-73
2022/04/25 10:03:34;;;;;;;8.67;7.87;;;19.70;42.40;;;;;;20730;6823;118145;-74
2022/04/25 10:05:59;;;;;;;9.50;9.00;;;19.80;42.90;;;;;;20781;6823;116912;-73
2022/04/25 10:08:25;;;;;;;8.80;8.30;;;19.80;43.20;;;;;;20785;6823;117240;-73
2022/04/25 10:10:53;;;;;;;9.03;8.53;;;19.80;42.50;;;;;;20789;6823;117529;-74
2022/04/25 10:13:17;;;;;;;8.43;7.93;;;19.90;41.90;;;;;;20769;6823;117346;-74
2022/04/25 10:15:43;;;;;;;8.40;7.90;;;19.80;41.80;;;;;;20787;6823;117531;-73
2022/04/25 10:18:09;;;;;;;8.93;8.27;;;19.80;43.00;;;;;;20775;6823;117610;-74
2022/04/25 10:20:36;;;;;;;8.07;7.50;;;19.80;42.30;;;;;;20782;6823;124951;-74
2022/04/25 10:23:00;;;;;;;9.70;9.00;;;19.80;42.50;;;;;;20774;6823;122428;-73
2022/04/25 10:25:27;;;;;;;8.07;7.67;;;19.70;42.00;;;;;;20763;6823;117288;-74
2022/04/25 10:27:53;;;;;;;9.70;9.10;;;19.80;42.40;;;;;;20786;6823;117076;-74
2022/04/25 10:30:19;;;;;;;9.70;9.07;;;19.80;42.40;;;;;;20785;6823;117089;-73
2022/04/25 10:32:45;;;;;;;10.55;9.95;;;20.00;37.80;;;;;;20566;6823;308017;-74
2022/04/25 10:35:14;;;;;;;10.37;9.77;;;20.00;37.80;;;;;;20764;6823;117724;-74
2022/04/25 10:37:40;;;;;;;10.33;9.63;;;20.00;38.90;;;;;;20783;6823;117623;-74
2022/04/25 10:40:08;;;;;;;9.70;9.00;;;19.80;39.50;;;;;;20765;6823;117256;-74
2022/04/25 10:45:52;;;;;;;10.27;9.57;;;19.80;37.70;;;;;;20774;6823;117821;-73
2022/04/25 10:48:17;;;;;;;10.27;9.67;;;19.90;39.60;;;;;;20573;6823;307749;-74
2022/04/25 10:51:06;;;;;;;9.87;9.10;;;20.20;37.00;;;;;;20788;6821;117942;-74
2022/04/25 10:53:31;;;;;;;10.77;10.07;;;20.20;38.40;;;;;;20573;6823;336588;-74
2022/04/25 10:55:57;;;;;;;9.02;8.52;;;20.40;36.10;;;;;;20486;6823;336729;-74
2022/04/25 10:58:23;;;;;;;10.07;9.47;;;20.60;36.50;;;;;;20755;6823;117243;-75
2022/04/25 11:00:49;;;;;;;9.73;9.13;;;20.40;38.60;;;;;;20790;6823;117814;-74
2022/04/25 11:03:14;;;;;;;9.80;9.10;;;20.30;38.50;;;;;;20763;6823;123564;-74
2022/04/25 11:05:40;;;;;;;7.97;7.57;;;20.00;38.90;;;;;;20772;6823;123279;-75
2022/04/25 11:08:16;;;;;;;10.68;10.07;;;19.80;39.50;;;;;;20576;6823;283096;-74
2022/04/25 11:10:48;;;;;;;9.70;9.00;;;19.80;36.30;;;;;;20791;6823;119696;-74
2022/04/25 11:13:14;;;;;;;7.60;7.10;;;19.70;38.10;;;;;;20769;6823;117626;-75
2022/04/25 11:15:53;;;;;;;7.73;7.13;;;19.30;40.00;;;;;;20785;6823;117823;-75
2022/04/25 11:18:30;;;;;;;9.00;8.50;;;19.20;39.90;;;;;;20785;6823;117087;-73
2022/04/25 11:20:53;;;;;;;10.48;9.77;;;19.00;39.60;;;;;;20570;6823;338482;-73
2022/04/25 11:23:23;;;;;;;8.77;8.27;;;19.20;39.20;;;;;;20551;6823;336642;-72
2022/04/25 11:25:53;;;;;;;9.73;9.23;;;19.20;39.30;;;;;;20574;6823;307597;-73
2022/04/25 11:28:17;;;;;;;11.27;10.67;;;19.10;39.20;;;;;;20570;6823;282831;-72
2022/04/25 11:30:42;;;;;;;10.98;10.27;;;19.00;40.30;;;;;;20570;6823;312051;-74
2022/04/25 11:33:09;;;;;;;13.03;12.23;;;18.70;43.30;;;;;;20561;6823;279609;-73
2022/04/25 11:35:34;;;;;;;11.63;10.90;;;18.70;43.30;;;;;;20572;6823;282840;-73
2022/04/25 11:38:00;;;;;;;12.82;12.02;;;18.50;44.50;;;;;;20575;6823;308116;-72
2022/04/25 11:40:30;;;;;;;10.83;10.23;;;18.20;45.60;;;;;;20790;6823;118057;-77
2022/04/25 11:42:56;;;;;;;10.23;9.63;;;17.60;45.90;;;;;;20586;6823;278147;-72
2022/04/25 11:45:22;;;;;;;12.17;11.50;;;17.10;50.00;;;;;;20564;6823;278842;-73
2022/04/25 11:47:47;;;;;;;12.10;11.30;;;17.10;49.90;;;;;;20572;6823;342338;-74
2022/04/25 11:50:13;;;;;;;13.67;12.67;;;17.00;48.70;;;;;;20772;6823;117829;-72
2022/04/25 11:52:48;;;;;;;8.70;8.10;;;16.60;49.00;;;;;;20788;6823;118837;-73
2022/04/25 11:55:14;;;;;;;11.07;10.33;;;16.10;49.60;;;;;;20763;6823;120962;-73
2022/04/25 11:57:39;;;;;;;13.43;12.27;;;15.60;50.90;;;;;;20772;6823;117828;-73
2022/04/25 12:00:07;;;;;;;11.53;10.80;;;15.20;52.00;;;;;;20550;6823;301508;-74
2022/04/25 12:02:36;;;;;;;11.17;10.23;;;15.20;52.00;;;;;;20786;6822;117943;-73
2022/04/25 12:05:02;;;;;;;8.77;8.27;;;15.10;52.10;;;;;;20577;6823;278490;-70
2022/04/25 12:07:29;;;;;;;9.47;8.77;;;15.10;51.70;;;;;;20547;6823;307778;-74
2022/04/25 12:17:55;;;;;;;10.27;9.40;;;15.20;52.70;;;;;;20785;6823;117963;-76
2022/04/25 12:20:27;;;;;;;8.40;7.73;;;14.80;53.60;;;;;;20706;6823;117936;-76
2022/04/25 12:22:56;;;;;;;7.50;7.10;;;14.50;54.30;;;;;;20766;6823;118798;-74
2022/04/25 12:25:21;;;;;;;6.93;6.53;;;14.40;54.90;;;;;;20760;6823;118916;-74
2022/04/25 12:28:13;;;;;;;7.13;6.53;;;14.20;55.10;;;;;;20783;6823;118425;-74
2022/04/25 12:30:45;;;;;;;6.60;6.20;;;14.20;55.50;;;;;;20787;6823;117037;-74
2022/04/25 12:33:12;;;;;;;6.60;6.20;;;14.10;55.90;;;;;;20767;6823;117329;-75
2022/04/25 12:35:37;;;;;;;7.95;7.43;;;14.40;56.40;;;;;;20557;6823;278145;-75
2022/04/25 12:38:06;;;;;;;6.30;6.00;;;14.30;56.10;;;;;;20786;6823;121067;-75
2022/04/25 12:40:55;;;;;;;7.70;6.97;;;14.50;55.70;;;;;;20782;6823;117723;-75
2022/04/25 12:43:33;;;;;;;7.30;6.90;;;14.50;55.60;;;;;;20549;6823;278449;-75
2022/04/25 12:45:59;;;;;;;7.12;6.72;;;15.00;53.30;;;;;;20493;6823;312024;-75
2022/04/25 12:48:25;;;;;;;8.10;7.60;;;15.00;53.90;;;;;;20568;6823;281671;-75
2022/04/25 12:50:51;;;;;;;7.10;6.70;;;15.20;52.80;;;;;;20567;6823;307628;-74
2022/04/25 12:53:17;;;;;;;7.00;6.70;;;15.50;51.70;;;;;;20545;6823;299884;-75
2022/04/25 12:55:46;;;;;;;6.40;6.00;;;15.40;51.80;;;;;;20493;6823;307432;-75
2022/04/25 12:58:12;;;;;;;5.85;5.55;;;15.80;51.20;;;;;;20552;6823;311719;-74
2022/04/25 13:00:44;;;;;;;5.37;5.17;;;15.80;51.20;;;;;;20782;6823;117880;-74
2022/04/25 13:03:10;;;;;;;5.80;5.50;;;15.70;51.70;;;;;;20762;6823;121488;-74
2022/04/25 13:05:36;;;;;;;6.57;6.10;;;15.50;54.00;;;;;;20714;6823;123946;-75
2022/04/25 13:08:02;;;;;;;6.17;5.87;;;15.50;55.10;;;;;;20786;6823;117733;-75
2022/04/25 13:10:28;;;;;;;5.13;4.87;;;15.40;55.10;;;;;;20780;6823;117674;-74